createdAt,value
2018-04-27T00:01:59.203Z,76.70
2018-04-27T00:04:27.844Z,76.30
2018-04-27T00:06:56.984Z,76.70
2018-04-27T00:09:26.422Z,77.20
2018-04-27T00:11:54.620Z,77.20
2018-04-27T00:14:22.820Z,77.30
2018-04-27T00:16:51.049Z,77.50
2018-04-27T00:19:19.895Z,77.80
2018-04-27T00:21:48.087Z,78.00
2018-04-27T00:24:17.052Z,77.70
2018-04-27T00:26:45.508Z,77.60
2018-04-27T00:29:13.696Z,77.70
2018-04-27T00:31:41.884Z,78.20
2018-04-27T00:34:10.748Z,78.60
2018-04-27T00:36:38.939Z,78.70
2018-04-27T00:39:07.620Z,78.90
2018-04-27T00:41:35.819Z,78.90
2018-04-27T00:44:04.000Z,79.20
2018-04-27T00:46:32.276Z,79.50
2018-04-27T00:49:01.376Z,79.70
2018-04-27T00:51:30.720Z,80.50
2018-04-27T00:53:59.273Z,79.90
2018-04-27T00:56:27.473Z,79.90
2018-04-27T00:58:56.011Z,80.20
2018-04-27T01:01:24.702Z,80.60
2018-04-27T01:03:52.891Z,80.80
2018-04-27T01:06:21.899Z,80.80
2018-04-27T01:08:58.168Z,81.00
2018-04-27T01:11:27.127Z,81.60
2018-04-27T01:13:55.320Z,81.50
2018-04-27T01:16:23.533Z,81.90
2018-04-27T01:18:51.731Z,81.70
2018-04-27T01:21:20.479Z,81.90
2018-04-27T01:23:49.437Z,82.00
2018-04-27T01:26:18.064Z,82.00
2018-04-27T01:28:46.263Z,82.20
2018-04-27T01:31:14.455Z,82.40
2018-04-27T01:33:43.179Z,82.60
2018-04-27T01:36:11.367Z,82.70
2018-04-27T01:38:40.326Z,82.60
2018-04-27T01:41:10.274Z,82.60
2018-04-27T01:43:39.233Z,83.20
2018-04-27T01:46:07.436Z,83.00
2018-04-27T01:48:36.737Z,82.10
2018-04-27T01:51:13.008Z,82.40
2018-04-27T01:53:41.208Z,82.50
2018-04-27T01:56:10.196Z,82.30
2018-04-27T01:58:38.542Z,82.50
2018-04-27T02:01:06.732Z,82.70
2018-04-27T02:03:34.932Z,83.00
2018-04-27T02:06:03.351Z,83.60
2018-04-27T02:08:31.472Z,83.50
2018-04-27T02:11:00.496Z,83.40
2018-04-27T02:13:28.686Z,83.40
2018-04-27T02:15:57.645Z,83.90
2018-04-27T02:18:25.898Z,83.90
2018-04-27T02:20:55.580Z,84.40
2018-04-27T02:23:23.822Z,84.30
2018-04-27T02:25:52.018Z,84.60
2018-04-27T02:28:20.245Z,84.90
2018-04-27T02:30:49.240Z,85.50
2018-04-27T02:33:19.050Z,85.80
2018-04-27T02:35:48.026Z,86.50
2018-04-27T02:38:16.221Z,85.70
2018-04-27T02:40:45.701Z,86.00
2018-04-27T02:43:14.386Z,86.00
2018-04-27T02:45:42.579Z,86.20
2018-04-27T02:48:10.780Z,86.30
2018-04-27T02:50:39.703Z,86.20
2018-04-27T02:53:08.003Z,86.40
2018-04-27T02:55:36.665Z,86.70
2018-04-27T02:58:05.271Z,86.60
2018-04-27T03:00:33.469Z,86.60
2018-04-27T03:03:01.675Z,86.80
2018-04-27T03:05:30.750Z,87.00
2018-04-27T03:07:59.708Z,87.30
2018-04-27T03:10:29.051Z,87.30
2018-04-27T03:12:57.255Z,87.40
2018-04-27T03:15:25.447Z,87.60
2018-04-27T03:17:53.659Z,87.70
2018-04-27T03:20:22.439Z,87.50
2018-04-27T03:22:50.636Z,87.50
2018-04-27T03:25:19.592Z,88.10
2018-04-27T03:27:47.807Z,88.00
2018-04-27T03:30:16.763Z,88.50
2018-04-27T03:32:45.887Z,88.50
2018-04-27T03:35:14.856Z,88.70
2018-04-27T03:37:43.063Z,88.70
2018-04-27T03:40:12.571Z,88.80
2018-04-27T03:42:41.854Z,88.80
2018-04-27T03:45:10.040Z,88.70
2018-04-27T03:47:38.242Z,88.80
2018-04-27T03:50:06.957Z,89.20
2018-04-27T03:52:36.598Z,89.50
2018-04-27T03:55:05.333Z,89.50
2018-04-27T03:57:34.516Z,89.60
2018-04-27T04:00:14.462Z,89.60
2018-04-27T04:02:55.181Z,90.10
2018-04-27T04:05:27.487Z,90.10
2018-04-27T04:07:55.685Z,90.10
2018-04-27T04:10:25.594Z,90.30
2018-04-27T04:12:54.560Z,90.40
2018-04-27T04:15:23.012Z,90.40
2018-04-27T04:17:51.226Z,90.30
2018-04-27T04:20:19.836Z,90.30
2018-04-27T04:22:48.038Z,90.20
2018-04-27T04:25:16.583Z,90.40
2018-04-27T04:27:44.776Z,90.40
2018-04-27T04:30:13.648Z,90.60
2018-04-27T04:32:42.931Z,90.40
2018-04-27T04:35:11.206Z,90.30
2018-04-27T04:37:39.452Z,90.50
2018-04-27T04:40:07.752Z,90.50
2018-04-27T04:42:36.175Z,90.60
2018-04-27T04:45:04.520Z,90.80
2018-04-27T04:47:32.701Z,90.80
2018-04-27T04:50:01.367Z,90.80
2018-04-27T04:52:29.697Z,90.90
2018-04-27T04:54:57.863Z,91.30
2018-04-27T04:57:26.531Z,91.00
2018-04-27T04:59:54.753Z,91.00
2018-04-27T05:02:22.954Z,91.00
2018-04-27T05:04:51.176Z,91.10
2018-04-27T05:07:21.223Z,91.40
2018-04-27T05:09:50.396Z,91.40
2018-04-27T05:12:18.596Z,91.50
2018-04-27T05:14:46.794Z,91.60
2018-04-27T05:17:15.021Z,92.00
2018-04-27T05:19:44.243Z,91.70
2018-04-27T05:22:12.453Z,91.70
2018-04-27T05:24:41.313Z,91.80
2018-04-27T05:27:09.513Z,91.90
2018-04-27T05:29:37.879Z,92.00
2018-04-27T05:32:06.072Z,91.90
2018-04-27T05:34:34.724Z,91.70
2018-04-27T05:37:02.930Z,91.80
2018-04-27T05:39:31.464Z,91.80
2018-04-27T05:42:00.361Z,91.40
2018-04-27T05:44:28.552Z,91.50
2018-04-27T05:46:56.749Z,91.30
2018-04-27T05:49:25.349Z,91.40
2018-04-27T05:51:53.828Z,91.70
2018-04-27T05:54:22.318Z,91.60
2018-04-27T05:56:51.017Z,91.30
2018-04-27T05:59:19.216Z,91.00
2018-04-27T06:01:48.180Z,90.30
2018-04-27T06:04:16.612Z,90.30
2018-04-27T06:06:45.364Z,90.20
2018-04-27T06:09:14.055Z,90.20
2018-04-27T06:11:43.023Z,90.20
2018-04-27T06:14:11.998Z,90.20
2018-04-27T06:16:40.977Z,89.30
2018-04-27T06:19:09.840Z,89.30
2018-04-27T06:21:38.040Z,89.40
2018-04-27T06:24:06.244Z,88.90
2018-04-27T06:26:35.031Z,89.90
2018-04-27T06:29:03.224Z,89.70
2018-04-27T06:31:31.421Z,88.30
2018-04-27T06:34:00.192Z,88.20
2018-04-27T06:36:29.167Z,88.60
2018-04-27T06:39:03.715Z,88.60
2018-04-27T06:41:33.646Z,85.50
2018-04-27T06:44:02.612Z,86.10
2018-04-27T06:46:31.429Z,86.10
2018-04-27T06:49:00.400Z,86.20
2018-04-27T06:51:29.055Z,86.10
2018-04-27T06:53:58.371Z,84.00
2018-04-27T06:56:28.300Z,84.70
2018-04-27T06:58:57.077Z,84.00
2018-04-27T07:01:25.267Z,83.40
2018-04-27T07:03:53.465Z,83.70
2018-04-27T07:06:22.944Z,82.50
2018-04-27T07:08:59.237Z,82.50
2018-04-27T07:11:28.543Z,82.10
2018-04-27T07:13:57.304Z,82.10
2018-04-27T07:16:25.500Z,82.50
2018-04-27T07:18:54.679Z,80.70
2018-04-27T07:21:23.350Z,80.70
2018-04-27T07:23:52.047Z,79.50
2018-04-27T07:26:20.251Z,80.10
2018-04-27T07:28:48.449Z,79.00
2018-04-27T07:31:16.660Z,78.40
2018-04-27T07:33:45.159Z,76.60
2018-04-27T07:36:13.377Z,76.10
2018-04-27T07:38:41.565Z,76.80
2018-04-27T07:41:10.513Z,76.80
2018-04-27T07:43:40.437Z,74.70
2018-04-27T07:46:09.411Z,76.30
2018-04-27T07:48:37.623Z,76.20
2018-04-27T07:51:06.360Z,76.20
2018-04-27T07:53:34.787Z,75.10
2018-04-27T07:56:05.599Z,74.00
2018-04-27T07:58:34.902Z,67.90
2018-04-27T08:01:03.108Z,67.90
2018-04-27T08:03:31.308Z,65.90
2018-04-27T08:05:59.863Z,61.60
2018-04-27T08:08:28.065Z,59.90
2018-04-27T08:10:57.107Z,58.80
2018-04-27T08:13:26.248Z,59.30
2018-04-27T08:15:54.884Z,58.50
2018-04-27T08:18:23.575Z,58.00
2018-04-27T08:20:53.300Z,55.80
2018-04-27T08:23:22.271Z,58.60
2018-04-27T08:25:50.476Z,58.60
2018-04-27T08:28:18.705Z,55.70
2018-04-27T08:30:46.901Z,55.60
2018-04-27T08:33:15.380Z,56.90
2018-04-27T08:35:43.595Z,55.50
2018-04-27T08:38:11.785Z,52.90
2018-04-27T08:40:40.469Z,55.70
2018-04-27T08:43:09.304Z,54.90
2018-04-27T08:45:37.505Z,54.20
2018-04-27T08:48:05.703Z,52.00
2018-04-27T08:50:34.677Z,54.20
2018-04-27T08:53:03.247Z,52.10
2018-04-27T08:55:32.204Z,51.30
2018-04-27T08:58:01.245Z,51.10
2018-04-27T09:00:30.274Z,49.10
2018-04-27T09:02:58.488Z,49.00
2018-04-27T09:05:27.228Z,48.20
2018-04-27T09:07:55.431Z,49.50
2018-04-27T09:10:24.368Z,48.60
2018-04-27T09:12:52.567Z,48.50
2018-04-27T09:15:21.860Z,46.00
2018-04-27T09:17:50.344Z,46.20
2018-04-27T09:20:19.893Z,45.60
2018-04-27T09:22:48.093Z,45.40
2018-04-27T09:25:16.291Z,47.20
2018-04-27T09:27:44.510Z,46.40
2018-04-27T09:30:12.712Z,45.40
2018-04-27T09:32:41.410Z,44.10
2018-04-27T09:35:09.619Z,43.60
2018-04-27T09:37:37.812Z,43.90
2018-04-27T09:40:06.872Z,43.60
2018-04-27T09:42:36.165Z,43.50
2018-04-27T09:45:04.372Z,43.40
2018-04-27T09:47:32.568Z,45.10
2018-04-27T09:50:01.632Z,44.60
2018-04-27T09:52:30.696Z,43.60
2018-04-27T09:54:58.891Z,43.60
2018-04-27T09:57:27.231Z,44.30
2018-04-27T09:59:55.371Z,44.10
2018-04-27T10:02:23.582Z,44.40
2018-04-27T10:04:52.063Z,43.90
2018-04-27T10:07:21.527Z,43.80
2018-04-27T10:09:50.012Z,43.80
2018-04-27T10:12:18.209Z,44.20
2018-04-27T10:14:46.412Z,46.30
2018-04-27T10:17:14.995Z,45.70
2018-04-27T10:19:44.231Z,46.90
2018-04-27T10:22:13.198Z,45.60
2018-04-27T10:24:41.397Z,45.50
2018-04-27T10:27:10.367Z,45.40
2018-04-27T10:29:38.573Z,44.80
2018-04-27T10:32:07.163Z,44.80
2018-04-27T10:34:35.377Z,44.80
2018-04-27T10:37:03.899Z,44.80
2018-04-27T10:39:33.775Z,44.90
2018-04-27T10:42:02.682Z,44.80
2018-04-27T10:44:31.794Z,46.30
2018-04-27T10:47:00.516Z,45.90
2018-04-27T10:49:28.757Z,43.90
2018-04-27T10:51:57.370Z,44.20
2018-04-27T10:54:26.857Z,43.60
2018-04-27T10:56:55.355Z,43.60
2018-04-27T10:59:24.324Z,44.50
2018-04-27T11:01:52.915Z,44.40
2018-04-27T11:04:21.906Z,45.10
2018-04-27T11:06:50.419Z,45.00
2018-04-27T11:09:18.984Z,45.90
2018-04-27T11:11:48.020Z,44.20
2018-04-27T11:14:16.544Z,44.10
2018-04-27T11:16:45.586Z,44.60
2018-04-27T11:19:13.363Z,44.30
2018-04-27T11:21:41.789Z,44.30
2018-04-27T11:24:10.506Z,43.90
2018-04-27T11:26:38.708Z,44.70
2018-04-27T11:29:07.683Z,44.50
2018-04-27T11:31:35.947Z,43.70
2018-04-27T11:34:05.276Z,44.50
2018-04-27T11:36:33.483Z,44.40
2018-04-27T11:39:04.257Z,43.50
2018-04-27T11:41:34.154Z,44.80
2018-04-27T11:44:02.360Z,44.80
2018-04-27T11:46:30.561Z,44.80
2018-04-27T11:48:58.787Z,44.40
2018-04-27T11:51:42.098Z,43.90
2018-04-27T11:54:10.303Z,43.80
2018-04-27T11:56:40.096Z,45.30
2018-04-27T11:59:08.292Z,45.30
2018-04-27T12:01:37.306Z,43.40
2018-04-27T12:04:06.037Z,43.40
2018-04-27T12:06:34.893Z,44.40
2018-04-27T12:09:03.492Z,43.90
2018-04-27T12:11:31.669Z,43.90
2018-04-27T12:13:59.864Z,43.70
2018-04-27T12:16:28.142Z,43.60
2018-04-27T12:18:56.318Z,43.60
2018-04-27T12:21:24.819Z,44.40
2018-04-27T12:23:53.023Z,44.10
2018-04-27T12:26:21.339Z,45.10
2018-04-27T12:28:49.533Z,44.50
2018-04-27T12:31:19.406Z,44.30
2018-04-27T12:33:48.364Z,44.40
2018-04-27T12:36:16.567Z,44.40
2018-04-27T12:38:44.780Z,44.80
2018-04-27T12:41:13.477Z,45.20
2018-04-27T12:43:41.690Z,45.40
2018-04-27T12:46:10.678Z,45.60
2018-04-27T12:48:38.896Z,45.60
2018-04-27T12:51:07.321Z,46.00
2018-04-27T12:53:35.890Z,46.80
2018-04-27T12:56:06.855Z,46.20
2018-04-27T12:58:35.594Z,46.20
2018-04-27T13:01:04.065Z,46.10
2018-04-27T13:03:32.269Z,45.90
2018-04-27T13:06:00.881Z,46.30
2018-04-27T13:08:29.671Z,45.70
2018-04-27T13:10:57.968Z,45.60
2018-04-27T13:13:30.396Z,46.50
2018-04-27T13:15:59.026Z,45.60
2018-04-27T13:18:27.235Z,44.80
2018-04-27T13:20:55.441Z,44.90
2018-04-27T13:23:23.668Z,44.70
2018-04-27T13:25:52.248Z,42.20
2018-04-27T13:28:20.457Z,41.60
2018-04-27T13:30:49.051Z,42.10
2018-04-27T13:33:17.250Z,42.60
2018-04-27T13:35:45.461Z,41.80
2018-04-27T13:38:14.021Z,41.60
2018-04-27T13:40:42.995Z,42.20
2018-04-27T13:43:16.095Z,42.10
2018-04-27T13:45:46.016Z,43.00
2018-04-27T13:48:15.500Z,42.40
2018-04-27T13:50:44.201Z,42.20
2018-04-27T13:53:12.477Z,42.60
2018-04-27T13:55:40.760Z,42.20
2018-04-27T13:58:09.014Z,41.90
2018-04-27T14:00:42.868Z,42.10
2018-04-27T14:03:11.840Z,42.80
2018-04-27T14:05:40.287Z,42.60
2018-04-27T14:08:08.933Z,42.00
2018-04-27T14:10:37.816Z,41.20
2018-04-27T14:13:06.008Z,41.70
2018-04-27T14:15:34.314Z,41.90
2018-04-27T14:18:02.927Z,42.70
2018-04-27T14:20:31.552Z,41.90
2018-04-27T14:23:00.082Z,41.20
2018-04-27T14:25:28.292Z,41.30
2018-04-27T14:27:57.715Z,41.20
2018-04-27T14:30:25.920Z,42.10
2018-04-27T14:32:54.125Z,41.50
2018-04-27T14:35:22.336Z,42.10
2018-04-27T14:37:50.547Z,41.00
2018-04-27T14:40:18.768Z,41.30
2018-04-27T14:42:47.544Z,41.10
2018-04-27T14:45:15.756Z,41.40
2018-04-27T14:47:44.705Z,42.20
2018-04-27T14:50:14.053Z,41.10
2018-04-27T14:52:42.740Z,41.60
2018-04-27T14:55:11.196Z,41.80
2018-04-27T14:57:40.496Z,39.60
2018-04-27T15:00:09.499Z,38.90
2018-04-27T15:02:37.695Z,38.90
2018-04-27T15:05:05.925Z,38.50
2018-04-27T15:07:34.508Z,39.20
2018-04-27T15:10:03.516Z,38.60
2018-04-27T15:12:33.120Z,39.00
2018-04-27T15:15:01.321Z,39.40
2018-04-27T15:17:30.284Z,38.80
2018-04-27T15:19:58.501Z,38.80
2018-04-27T15:22:26.696Z,38.20
2018-04-27T15:24:55.183Z,38.40
2018-04-27T15:27:23.379Z,37.70
2018-04-27T15:29:51.658Z,38.20
2018-04-27T15:32:19.860Z,38.80
2018-04-27T15:34:48.836Z,38.20
2018-04-27T15:37:17.056Z,38.20
2018-04-27T15:39:45.807Z,38.70
2018-04-27T15:42:14.951Z,39.10
2018-04-27T15:44:43.158Z,39.80
2018-04-27T15:47:11.791Z,39.50
2018-04-27T15:49:41.212Z,40.60
2018-04-27T15:52:10.070Z,40.60
2018-04-27T15:54:38.683Z,40.50
2018-04-27T15:57:07.506Z,40.40
2018-04-27T15:59:35.700Z,41.30
2018-04-27T16:02:03.948Z,41.00
2018-04-27T16:04:32.499Z,41.20
2018-04-27T16:07:01.081Z,40.80
2018-04-27T16:09:29.929Z,40.60
2018-04-27T16:11:58.454Z,40.60
2018-04-27T16:14:27.231Z,41.10
2018-04-27T16:16:56.205Z,42.50
2018-04-27T16:19:24.452Z,41.80
2018-04-27T16:21:53.259Z,41.90
2018-04-27T16:24:22.055Z,42.30
2018-04-27T16:26:50.258Z,42.30
2018-04-27T16:29:19.218Z,43.40
2018-04-27T16:31:47.439Z,43.40
2018-04-27T16:34:15.875Z,43.30
2018-04-27T16:36:44.077Z,43.10
2018-04-27T16:39:13.104Z,43.00
2018-04-27T16:41:41.658Z,43.40
2018-04-27T16:44:10.427Z,43.40
2018-04-27T16:46:38.706Z,43.90
2018-04-27T16:49:07.287Z,43.90
2018-04-27T16:51:37.173Z,44.30
2018-04-27T16:54:06.012Z,44.20
2018-04-27T16:56:40.477Z,44.30
2018-04-27T16:59:08.688Z,44.80
2018-04-27T17:01:36.880Z,44.80
2018-04-27T17:04:05.393Z,45.00
2018-04-27T17:06:34.815Z,45.10
2018-04-27T17:09:03.300Z,45.00
2018-04-27T17:11:31.501Z,45.20
2018-04-27T17:13:59.707Z,45.70
2018-04-27T17:16:28.857Z,45.80
2018-04-27T17:18:57.072Z,45.70
2018-04-27T17:21:26.124Z,46.00
2018-04-27T17:23:54.392Z,45.90
2018-04-27T17:26:22.923Z,46.20
2018-04-27T17:28:51.359Z,46.70
2018-04-27T17:31:19.876Z,46.70
2018-04-27T17:33:48.046Z,46.70
2018-04-27T17:36:16.295Z,46.60
2018-04-27T17:38:45.243Z,46.80
2018-04-27T17:41:15.381Z,47.80
2018-04-27T17:43:44.345Z,48.10
2018-04-27T17:46:12.556Z,48.10
2018-04-27T17:48:41.507Z,47.50
2018-04-27T17:51:10.032Z,48.10
2018-04-27T17:53:38.512Z,48.60
2018-04-27T17:56:07.588Z,49.10
2018-04-27T17:58:36.904Z,48.90
2018-04-27T18:01:05.420Z,48.80
2018-04-27T18:03:34.058Z,49.00
2018-04-27T18:06:03.277Z,48.90
2018-04-27T18:08:32.979Z,49.30
2018-04-27T18:11:02.051Z,50.40
2018-04-27T18:13:30.240Z,50.30
2018-04-27T18:15:59.208Z,50.80
2018-04-27T18:18:27.607Z,50.80
2018-04-27T18:20:57.603Z,51.50
2018-04-27T18:23:28.064Z,51.60
2018-04-27T18:25:57.583Z,52.00
2018-04-27T18:28:26.545Z,52.50
2018-04-27T18:30:55.347Z,52.50
2018-04-27T18:33:24.345Z,53.20
2018-04-27T18:35:53.122Z,53.10
2018-04-27T18:38:21.312Z,53.50
2018-04-27T18:40:49.504Z,53.60
2018-04-27T18:43:18.195Z,54.00
2018-04-27T18:45:46.389Z,54.20
2018-04-27T18:48:15.353Z,54.70
2018-04-27T18:50:44.425Z,55.30
2018-04-27T18:53:13.519Z,55.30
2018-04-27T18:55:41.737Z,55.50
2018-04-27T18:58:10.303Z,56.20
2018-04-27T19:00:53.239Z,55.80
2018-04-27T19:03:21.514Z,55.80
2018-04-27T19:05:49.844Z,56.20
2018-04-27T19:08:18.370Z,55.70
2018-04-27T19:10:47.222Z,55.80
2018-04-27T19:13:17.012Z,56.30
2018-04-27T19:15:46.059Z,56.80
2018-04-27T19:18:19.163Z,56.80
2018-04-27T19:20:47.472Z,56.50
2018-04-27T19:23:19.097Z,56.20
2018-04-27T19:25:49.863Z,56.20
2018-04-27T19:28:18.901Z,56.80
2018-04-27T19:30:50.770Z,56.80
2018-04-27T19:33:19.005Z,56.70
2018-04-27T19:35:47.822Z,56.80
2018-04-27T19:38:16.015Z,57.00
2018-04-27T19:40:44.214Z,57.10
2018-04-27T19:43:13.900Z,58.00
2018-04-27T19:45:42.945Z,57.40
2018-04-27T19:48:11.137Z,57.40
2018-04-27T19:50:39.337Z,57.00
2018-04-27T19:53:08.853Z,57.10
2018-04-27T19:55:37.053Z,57.50
2018-04-27T19:58:05.601Z,57.60
2018-04-27T20:00:52.251Z,57.70
2018-04-27T20:03:20.448Z,57.70
2018-04-27T20:05:49.170Z,57.40
2018-04-27T20:08:27.150Z,58.00
2018-04-27T20:10:56.812Z,59.10
2018-04-27T20:13:25.459Z,59.10
2018-04-27T20:15:56.404Z,59.00
2018-04-27T20:18:29.124Z,59.10
2018-04-27T20:20:58.806Z,59.50
2018-04-27T20:23:29.647Z,59.80
2018-04-27T20:25:59.512Z,61.80
2018-04-27T20:28:28.496Z,61.70
2018-04-27T20:30:58.387Z,61.90
2018-04-27T20:33:27.075Z,61.90
2018-04-27T20:35:56.946Z,62.10
2018-04-27T20:38:26.928Z,62.10
2018-04-27T20:40:55.144Z,62.10
2018-04-27T20:43:24.909Z,62.40
2018-04-27T20:45:53.156Z,61.90
2018-04-27T20:48:25.402Z,60.70
2018-04-27T20:51:00.297Z,60.70
2018-04-27T20:53:30.694Z,60.20
2018-04-27T20:56:07.763Z,60.20
2018-04-27T20:58:37.367Z,60.40
2018-04-27T21:01:06.217Z,61.00
2018-04-27T21:03:34.412Z,60.30
2018-04-27T21:06:03.236Z,60.40
2018-04-27T21:08:32.539Z,60.90
2018-04-27T21:11:01.563Z,61.00
2018-04-27T21:13:29.776Z,61.00
2018-04-27T21:15:58.053Z,60.90
2018-04-27T21:18:27.171Z,61.60
2018-04-27T21:20:55.364Z,60.90
2018-04-27T21:23:24.672Z,60.80
2018-04-27T21:25:52.868Z,60.70
2018-04-27T21:28:22.913Z,60.90
2018-04-27T21:30:52.676Z,61.20
2018-04-27T21:33:39.645Z,61.30
2018-04-27T21:36:10.726Z,61.70
2018-04-27T21:38:42.855Z,61.90
2018-04-27T21:54:55.680Z,62.90
2018-04-27T21:57:45.255Z,63.00
2018-04-27T22:00:14.730Z,62.80
2018-04-27T22:02:48.580Z,62.90
2018-04-27T22:18:53.087Z,63.40
2018-04-27T22:21:21.283Z,63.90
2018-04-27T22:23:49.864Z,64.70
2018-04-27T22:26:18.774Z,64.80
2018-04-27T22:28:49.144Z,64.60
2018-04-27T22:31:24.196Z,64.80
2018-04-27T22:33:57.360Z,64.90
2018-04-27T22:36:31.429Z,64.90
2018-04-27T22:52:34.711Z,66.20
2018-04-27T22:55:03.683Z,66.40
2018-04-27T22:57:35.847Z,66.70
2018-04-27T23:00:07.632Z,66.80
2018-04-27T23:02:35.819Z,66.80
2018-04-27T23:05:13.115Z,67.60
2018-04-27T23:07:45.476Z,67.60
2018-04-27T23:10:14.644Z,67.70
2018-04-27T23:26:09.576Z,68.00
2018-04-27T23:28:38.023Z,69.40
2018-04-27T23:31:06.598Z,68.60
2018-04-27T23:33:35.808Z,68.60
2018-04-27T23:36:04.002Z,68.60
2018-04-27T23:38:32.200Z,68.40
2018-04-27T23:41:08.823Z,68.70
2018-04-27T23:43:37.288Z,68.90
2018-04-27T23:46:05.482Z,69.20
2018-04-27T23:48:33.688Z,69.10
2018-04-27T23:51:02.658Z,69.30
2018-04-27T23:53:36.124Z,69.40
2018-04-27T23:56:09.180Z,69.50
2018-04-27T23:58:38.405Z,69.50
